createdAt,value
2022-09-22T00:01:33.296Z,2.27
2022-09-22T00:04:07.046Z,2.13
2022-09-22T00:06:47.475Z,2.27
2022-09-22T00:09:17.439Z,2.30
2022-09-22T00:11:49.217Z,2.63
2022-09-22T00:14:26.615Z,2.07
2022-09-22T00:17:01.037Z,2.10
2022-09-22T00:19:37.100Z,2.43
2022-09-22T00:22:05.392Z,2.20
2022-09-22T00:24:33.537Z,2.53
2022-09-22T00:27:01.251Z,2.60
2022-09-22T00:29:30.699Z,2.40
2022-09-22T00:31:57.898Z,2.20
2022-09-22T00:34:27.108Z,2.67
2022-09-22T00:36:54.292Z,2.30
2022-09-22T00:39:21.057Z,2.33
2022-09-22T00:41:51.749Z,2.20
2022-09-22T00:44:21.324Z,2.20
2022-09-22T00:47:01.273Z,2.10
2022-09-22T00:49:59.991Z,2.20
2022-09-22T00:52:49.100Z,2.13
2022-09-22T00:55:30.052Z,2.17
2022-09-22T00:58:00.482Z,2.83
2022-09-22T01:00:27.312Z,2.50
2022-09-22T01:02:59.020Z,2.00
2022-09-22T01:05:29.811Z,2.00
2022-09-22T01:07:56.610Z,1.83
2022-09-22T01:10:24.012Z,2.07
2022-09-22T01:13:32.521Z,2.10
2022-09-22T01:16:48.469Z,1.90
2022-09-22T01:19:57.711Z,2.07
2022-09-22T01:22:38.809Z,1.80
2022-09-22T01:25:48.525Z,2.10
2022-09-22T01:28:58.954Z,2.23
2022-09-22T01:31:39.646Z,2.03
2022-09-22T01:34:19.651Z,2.00
2022-09-22T01:37:11.148Z,2.00
2022-09-22T01:39:51.233Z,2.03
2022-09-22T01:42:45.461Z,2.10
2022-09-22T01:45:25.970Z,2.00
2022-09-22T01:47:58.923Z,2.50
2022-09-22T01:50:33.997Z,2.20
2022-09-22T01:53:10.109Z,2.10
2022-09-22T01:55:40.816Z,2.20
2022-09-22T01:58:29.946Z,2.40
2022-09-22T02:01:10.914Z,2.00
2022-09-22T02:03:51.337Z,2.00
2022-09-22T02:06:31.550Z,2.00
2022-09-22T02:09:11.695Z,2.10
2022-09-22T02:11:39.714Z,1.57
2022-09-22T02:14:07.438Z,2.00
2022-09-22T02:16:34.969Z,1.80
2022-09-22T02:19:20.925Z,2.20
2022-09-22T02:21:51.627Z,2.20
2022-09-22T02:24:44.024Z,1.93
2022-09-22T02:27:27.973Z,2.10
2022-09-22T02:30:01.810Z,2.00
2022-09-22T02:32:30.551Z,1.87
2022-09-22T02:34:57.449Z,2.07
2022-09-22T02:37:53.841Z,2.30
2022-09-22T02:41:01.110Z,2.00
2022-09-22T02:43:53.443Z,2.07
2022-09-22T02:46:41.104Z,2.10
2022-09-22T02:49:15.874Z,2.50
2022-09-22T02:51:43.690Z,2.20
2022-09-22T02:54:10.449Z,2.40
2022-09-22T02:56:37.238Z,2.40
2022-09-22T02:59:04.118Z,2.37
2022-09-22T03:01:30.901Z,2.30
2022-09-22T03:03:57.647Z,2.30
2022-09-22T03:06:24.362Z,2.40
2022-09-22T03:08:51.082Z,2.40
2022-09-22T03:11:17.786Z,2.00
2022-09-22T03:13:44.489Z,1.93
2022-09-22T03:16:11.300Z,2.20
2022-09-22T03:18:38.069Z,2.40
2022-09-22T03:21:05.105Z,2.40
2022-09-22T03:23:31.860Z,2.73
2022-09-22T03:25:58.564Z,2.70
2022-09-22T03:28:25.289Z,2.33
2022-09-22T03:30:52.103Z,2.60
2022-09-22T03:33:18.806Z,2.70
2022-09-22T03:35:45.564Z,2.53
2022-09-22T03:38:12.241Z,2.60
2022-09-22T03:40:39.031Z,2.50
2022-09-22T03:43:05.830Z,2.70
2022-09-22T03:45:32.538Z,2.57
2022-09-22T03:47:59.274Z,2.20
2022-09-22T03:50:26.555Z,2.33
2022-09-22T03:52:53.254Z,2.37
2022-09-22T03:55:19.937Z,2.60
2022-09-22T03:57:46.869Z,2.60
2022-09-22T04:00:14.138Z,2.30
2022-09-22T04:02:41.453Z,2.17
2022-09-22T04:05:09.184Z,2.53
2022-09-22T04:07:36.317Z,2.30
2022-09-22T04:10:03.805Z,2.40
2022-09-22T04:12:30.580Z,2.70
2022-09-22T04:14:57.278Z,2.40
2022-09-22T04:17:24.062Z,2.57
2022-09-22T04:19:50.788Z,3.07
2022-09-22T04:22:17.543Z,2.87
2022-09-22T04:24:44.282Z,3.60
2022-09-22T04:27:26.414Z,3.37
2022-09-22T04:29:53.215Z,3.60
2022-09-22T04:32:23.362Z,3.93
2022-09-22T04:34:50.176Z,4.17
2022-09-22T04:37:16.867Z,3.00
2022-09-22T04:39:43.554Z,2.70
2022-09-22T04:42:10.301Z,2.70
2022-09-22T04:44:37.062Z,2.50
2022-09-22T04:47:04.878Z,2.70
2022-09-22T04:49:31.569Z,3.03
2022-09-22T04:51:58.256Z,3.10
2022-09-22T04:54:24.991Z,3.47
2022-09-22T04:56:51.701Z,2.90
2022-09-22T04:59:18.438Z,3.03
2022-09-22T05:01:45.249Z,3.50
2022-09-22T05:04:12.026Z,3.30
2022-09-22T05:06:39.062Z,3.47
2022-09-22T05:09:05.846Z,3.30
2022-09-22T05:11:32.687Z,3.00
2022-09-22T05:13:59.461Z,3.10
2022-09-22T05:16:26.546Z,2.73
2022-09-22T05:18:53.646Z,3.37
2022-09-22T05:21:20.416Z,2.90
2022-09-22T05:23:47.496Z,3.20
2022-09-22T05:26:14.381Z,2.90
2022-09-22T05:28:41.179Z,3.20
2022-09-22T05:31:07.976Z,3.30
2022-09-22T05:33:34.719Z,3.87
2022-09-22T05:36:01.843Z,3.20
2022-09-22T05:38:28.827Z,3.60
2022-09-22T05:40:55.558Z,3.57
2022-09-22T05:43:22.286Z,4.27
2022-09-22T05:45:49.739Z,6.07
2022-09-22T05:48:16.515Z,7.00
2022-09-22T05:50:45.253Z,6.30
2022-09-22T05:53:13.632Z,6.00
2022-09-22T05:55:41.148Z,6.70
2022-09-22T05:58:14.014Z,5.70
2022-09-22T06:00:42.111Z,4.60
2022-09-22T06:03:09.127Z,5.13
2022-09-22T06:05:38.195Z,5.67
2022-09-22T06:08:07.767Z,4.83
2022-09-22T06:10:37.761Z,5.03
2022-09-22T06:13:10.333Z,4.77
2022-09-22T06:15:38.326Z,4.80
2022-09-22T06:18:13.144Z,4.43
2022-09-22T06:20:42.381Z,4.10
2022-09-22T06:23:09.075Z,4.37
2022-09-22T06:25:35.801Z,4.30
2022-09-22T06:28:06.307Z,4.20
2022-09-22T06:30:35.285Z,3.73
2022-09-22T06:33:02.935Z,4.13
2022-09-22T06:35:37.419Z,4.47
2022-09-22T06:38:06.621Z,3.90
2022-09-22T06:40:38.238Z,4.20
2022-09-22T06:43:11.740Z,4.27
2022-09-22T06:45:44.642Z,4.33
2022-09-22T06:48:11.618Z,4.20
2022-09-22T06:50:40.802Z,3.37
2022-09-22T06:53:13.694Z,3.93
2022-09-22T06:55:43.836Z,3.60
2022-09-22T06:58:12.698Z,3.50
2022-09-22T07:00:41.966Z,4.10
2022-09-22T07:03:22.291Z,4.03
2022-09-22T07:06:01.204Z,3.73
2022-09-22T07:08:31.304Z,3.87
2022-09-22T07:11:02.204Z,3.43
2022-09-22T07:13:31.576Z,3.40
2022-09-22T07:16:11.544Z,3.63
2022-09-22T07:18:44.914Z,3.83
2022-09-22T07:21:21.213Z,3.33
2022-09-22T07:23:52.491Z,3.17
2022-09-22T07:26:26.596Z,3.03
2022-09-22T07:28:54.929Z,2.57
2022-09-22T07:31:28.441Z,3.20
2022-09-22T07:33:56.550Z,2.90
2022-09-22T07:36:27.648Z,2.60
2022-09-22T07:38:58.196Z,2.50
2022-09-22T07:41:28.690Z,2.77
2022-09-22T07:44:22.006Z,2.53
2022-09-22T07:46:49.005Z,3.27
2022-09-22T07:49:17.466Z,3.23
2022-09-22T07:51:44.284Z,3.43
2022-09-22T07:54:11.376Z,3.70
2022-09-22T07:56:44.234Z,3.70
2022-09-22T07:59:15.030Z,3.70
2022-09-22T08:01:47.558Z,3.00
2022-09-22T08:04:18.667Z,3.03
2022-09-22T08:06:48.654Z,2.97
2022-09-22T08:09:15.839Z,2.43
2022-09-22T08:11:45.850Z,2.60
2022-09-22T08:14:12.850Z,3.13
2022-09-22T08:16:41.016Z,2.80
2022-09-22T08:19:12.517Z,2.73
2022-09-22T08:21:48.282Z,2.90
2022-09-22T08:24:21.029Z,2.40
2022-09-22T08:26:52.786Z,2.30
2022-09-22T08:29:20.450Z,2.37
2022-09-22T08:31:49.081Z,2.70
2022-09-22T08:34:17.443Z,2.43
2022-09-22T08:36:48.441Z,2.73
2022-09-22T08:39:17.648Z,2.60
2022-09-22T08:42:01.985Z,2.40
2022-09-22T08:45:24.813Z,2.67
2022-09-22T08:48:21.669Z,2.70
2022-09-22T08:51:16.888Z,2.50
2022-09-22T08:53:49.580Z,2.67
2022-09-22T08:56:32.529Z,2.20
2022-09-22T08:59:22.872Z,2.60
2022-09-22T09:02:19.063Z,2.07
2022-09-22T09:05:07.922Z,2.10
2022-09-22T09:08:13.625Z,2.30
2022-09-22T09:10:54.368Z,2.40
2022-09-22T09:14:07.184Z,2.37
2022-09-22T09:16:52.471Z,2.13
2022-09-22T09:19:42.020Z,2.57
2022-09-22T09:22:25.234Z,1.83
2022-09-22T09:25:35.617Z,2.47
2022-09-22T09:28:22.955Z,1.93
2022-09-22T09:30:59.179Z,2.07
2022-09-22T09:33:55.200Z,2.03
2022-09-22T09:36:29.371Z,2.43
2022-09-22T09:38:59.606Z,1.93
2022-09-22T09:41:32.812Z,2.10
2022-09-22T09:44:02.929Z,2.10
2022-09-22T09:47:11.451Z,1.50
2022-09-22T09:49:38.294Z,1.70
2022-09-22T09:52:14.154Z,1.70
2022-09-22T09:54:43.335Z,1.60
2022-09-22T09:57:16.170Z,1.57
2022-09-22T10:00:04.636Z,1.80
2022-09-22T10:02:35.066Z,1.63
2022-09-22T10:05:07.607Z,1.60
2022-09-22T10:07:58.137Z,1.80
2022-09-22T10:10:39.007Z,1.27
2022-09-22T10:13:05.615Z,1.30
2022-09-22T10:15:36.257Z,1.57
2022-09-22T10:18:23.515Z,1.40
2022-09-22T10:21:17.847Z,1.27
2022-09-22T10:23:49.822Z,1.30
2022-09-22T10:26:19.594Z,1.40
2022-09-22T10:29:09.348Z,1.23
2022-09-22T10:31:38.110Z,1.30
2022-09-22T10:34:23.190Z,1.43
2022-09-22T10:36:50.710Z,1.43
2022-09-22T10:39:20.123Z,1.33
2022-09-22T10:41:48.731Z,1.80
2022-09-22T10:44:37.972Z,1.40
2022-09-22T10:47:26.253Z,1.40
2022-09-22T10:50:21.822Z,1.40
2022-09-22T10:53:43.630Z,1.70
2022-09-22T10:56:46.141Z,1.40
2022-09-22T10:59:49.802Z,1.27
2022-09-22T11:03:08.365Z,1.43
2022-09-22T11:06:25.981Z,1.30
2022-09-22T11:09:31.638Z,1.27
2022-09-22T11:12:22.167Z,1.30
2022-09-22T11:15:38.532Z,1.30
2022-09-22T11:18:28.484Z,1.40
2022-09-22T11:21:31.138Z,1.17
2022-09-22T11:24:14.626Z,1.10
2022-09-22T11:26:54.090Z,1.20
2022-09-22T11:29:56.933Z,1.30
2022-09-22T11:33:09.958Z,1.40
2022-09-22T11:36:07.875Z,1.30
2022-09-22T11:39:10.380Z,1.10
2022-09-22T11:42:18.916Z,1.10
2022-09-22T11:45:20.919Z,1.20
2022-09-22T11:48:10.610Z,1.10
2022-09-22T11:51:16.350Z,1.10
2022-09-22T11:54:07.930Z,1.13
2022-09-22T11:56:41.037Z,1.20
2022-09-22T12:00:15.301Z,1.10
2022-09-22T12:03:11.145Z,1.03
2022-09-22T12:05:54.709Z,1.00
2022-09-22T12:08:28.929Z,1.10
2022-09-22T12:10:56.923Z,1.00
2022-09-22T12:13:30.855Z,1.20
2022-09-22T12:16:09.885Z,1.10
2022-09-22T12:19:13.497Z,1.00
2022-09-22T12:22:00.309Z,0.87
2022-09-22T12:24:27.067Z,1.10
2022-09-22T12:26:53.979Z,1.10
2022-09-22T12:29:25.702Z,1.07
2022-09-22T12:31:56.591Z,1.00
2022-09-22T12:34:44.293Z,0.90
2022-09-22T12:37:37.828Z,1.10
2022-09-22T12:40:35.567Z,1.10
2022-09-22T12:43:02.867Z,1.00
2022-09-22T12:45:35.969Z,1.20
2022-09-22T12:48:14.475Z,1.03
2022-09-22T12:50:44.058Z,1.27
2022-09-22T12:53:22.499Z,1.20
2022-09-22T12:55:51.675Z,1.27
2022-09-22T12:58:21.368Z,1.00
2022-09-22T13:00:56.768Z,1.10
2022-09-22T13:03:26.609Z,1.10
2022-09-22T13:06:04.473Z,1.20
2022-09-22T13:08:31.078Z,0.97
2022-09-22T13:11:04.499Z,1.00
2022-09-22T13:13:31.365Z,1.07
2022-09-22T13:16:14.157Z,1.03
2022-09-22T13:19:00.341Z,1.00
2022-09-22T13:21:33.243Z,0.93
2022-09-22T13:24:04.934Z,1.00
2022-09-22T13:26:40.510Z,1.10
2022-09-22T13:29:21.554Z,0.93
2022-09-22T13:31:52.749Z,1.10
2022-09-22T13:34:37.089Z,1.10
2022-09-22T13:37:16.586Z,1.10
2022-09-22T13:39:49.361Z,0.90
2022-09-22T13:42:33.983Z,1.10
2022-09-22T13:45:07.248Z,1.00
2022-09-22T13:47:35.824Z,1.00
2022-09-22T13:50:12.769Z,0.97
2022-09-22T13:52:40.914Z,0.90
2022-09-22T13:55:33.649Z,1.07
2022-09-22T13:58:02.997Z,1.00
2022-09-22T14:01:08.529Z,1.10
2022-09-22T14:03:37.505Z,1.10
2022-09-22T14:06:10.137Z,0.80
2022-09-22T14:08:37.385Z,1.10
2022-09-22T14:11:11.960Z,1.00
2022-09-22T14:13:58.636Z,0.80
2022-09-22T14:16:32.453Z,0.70
2022-09-22T14:19:13.709Z,0.90
2022-09-22T14:21:51.242Z,0.83
2022-09-22T14:24:19.014Z,0.70
2022-09-22T14:26:51.090Z,0.77
2022-09-22T14:29:31.884Z,1.00
2022-09-22T14:32:19.603Z,0.80
2022-09-22T14:34:50.291Z,0.60
2022-09-22T14:37:42.618Z,0.90
2022-09-22T14:40:25.874Z,1.07
2022-09-22T14:43:20.817Z,0.90
2022-09-22T14:46:07.415Z,0.80
2022-09-22T14:48:36.388Z,0.73
2022-09-22T14:51:08.273Z,1.10
2022-09-22T14:53:48.528Z,1.10
2022-09-22T14:56:29.463Z,0.70
2022-09-22T14:59:22.512Z,0.80
2022-09-22T15:02:29.496Z,0.80
2022-09-22T15:04:57.081Z,0.93
2022-09-22T15:07:31.215Z,0.82
2022-09-22T15:10:02.577Z,1.20
2022-09-22T15:12:47.451Z,1.20
2022-09-22T15:15:26.616Z,0.97
2022-09-22T15:18:12.948Z,1.23
2022-09-22T15:20:48.363Z,1.00
2022-09-22T15:23:37.242Z,1.20
2022-09-22T15:26:04.894Z,1.00
2022-09-22T15:28:37.515Z,0.97
2022-09-22T15:31:05.567Z,0.93
2022-09-22T15:33:32.617Z,1.00
2022-09-22T15:36:12.658Z,1.00
2022-09-22T15:38:39.902Z,1.07
2022-09-22T15:41:12.043Z,0.93
2022-09-22T15:43:40.535Z,0.80
2022-09-22T15:46:27.093Z,0.77
2022-09-22T15:48:58.365Z,0.73
2022-09-22T15:51:25.741Z,0.73
2022-09-22T15:53:54.066Z,1.10
2022-09-22T15:56:25.661Z,1.00
2022-09-22T15:58:52.622Z,0.90
2022-09-22T16:01:19.425Z,1.03
2022-09-22T16:03:46.182Z,0.80
2022-09-22T16:06:16.835Z,0.93
2022-09-22T16:08:51.542Z,0.90
2022-09-22T16:11:29.963Z,1.03
2022-09-22T16:14:01.043Z,1.30
2022-09-22T16:16:29.385Z,1.10
2022-09-22T16:18:57.297Z,1.33
2022-09-22T16:21:36.577Z,1.50
2022-09-22T16:24:08.266Z,1.17
2022-09-22T16:26:38.779Z,1.10
2022-09-22T16:29:07.570Z,1.20
2022-09-22T16:31:35.959Z,1.20
2022-09-22T16:34:05.382Z,1.10
2022-09-22T16:36:36.309Z,1.20
2022-09-22T16:39:04.409Z,1.50
2022-09-22T16:41:36.349Z,1.40
2022-09-22T16:44:04.515Z,1.87
2022-09-22T16:46:35.557Z,2.10
2022-09-22T16:49:05.542Z,2.50
2022-09-22T16:51:36.338Z,2.40
2022-09-22T16:54:07.932Z,2.20
2022-09-22T16:56:39.860Z,2.00
2022-09-22T16:59:07.421Z,1.90
2022-09-22T17:01:37.528Z,1.90
2022-09-22T17:04:06.870Z,1.53
2022-09-22T17:06:35.901Z,1.50
2022-09-22T17:09:03.630Z,1.77
2022-09-22T17:11:36.234Z,1.87
2022-09-22T17:14:12.356Z,1.60
2022-09-22T17:16:49.186Z,1.63
2022-09-22T17:19:20.358Z,1.50
2022-09-22T17:21:50.869Z,1.40
2022-09-22T17:24:19.219Z,1.50
2022-09-22T17:26:50.315Z,1.60
2022-09-22T17:29:24.770Z,1.63
2022-09-22T17:31:59.254Z,1.63
2022-09-22T17:34:28.393Z,2.30
2022-09-22T17:36:56.631Z,2.70
2022-09-22T17:39:25.157Z,3.10
2022-09-22T17:41:53.092Z,3.17
2022-09-22T17:44:23.517Z,3.60
2022-09-22T17:47:11.512Z,3.60
2022-09-22T17:49:57.869Z,3.67
2022-09-22T17:52:28.493Z,4.10
2022-09-22T17:55:07.887Z,4.93
2022-09-22T17:57:41.019Z,5.43
2022-09-22T18:00:21.100Z,4.33
2022-09-22T18:02:50.433Z,4.80
2022-09-22T18:05:21.862Z,4.27
2022-09-22T18:07:53.080Z,3.80
2022-09-22T18:10:20.909Z,4.37
2022-09-22T18:12:47.664Z,4.87
2022-09-22T18:15:17.043Z,5.50
2022-09-22T18:17:44.544Z,5.13
2022-09-22T18:20:23.052Z,5.03
2022-09-22T18:22:49.932Z,5.40
2022-09-22T18:25:25.493Z,3.93
2022-09-22T18:27:53.434Z,4.00
2022-09-22T18:30:20.311Z,3.90
2022-09-22T18:32:48.754Z,4.07
2022-09-22T18:35:16.280Z,3.20
2022-09-22T18:37:43.132Z,3.30
2022-09-22T18:40:12.179Z,8.47
2022-09-22T18:42:39.610Z,10.53
2022-09-22T18:45:07.011Z,11.40
2022-09-22T18:47:39.513Z,10.83
2022-09-22T18:50:07.069Z,10.70
2022-09-22T18:52:34.402Z,9.23
2022-09-22T18:55:04.751Z,11.20
2022-09-22T18:57:31.438Z,10.80
2022-09-22T19:00:01.076Z,11.07
2022-09-22T19:02:40.231Z,11.30
2022-09-22T19:05:07.440Z,11.17
2022-09-22T19:07:44.153Z,11.13
2022-09-22T19:10:21.393Z,11.67
2022-09-22T19:12:49.475Z,12.87
2022-09-22T19:15:18.650Z,15.33
2022-09-22T19:17:48.370Z,16.63
2022-09-22T19:20:23.720Z,16.37
2022-09-22T19:22:51.892Z,15.93
2022-09-22T19:25:21.192Z,16.80
2022-09-22T19:27:48.224Z,16.47
2022-09-22T19:30:14.963Z,16.30
2022-09-22T19:32:41.735Z,16.43
2022-09-22T19:35:09.641Z,13.17
2022-09-22T19:37:37.038Z,10.47
2022-09-22T19:40:06.752Z,8.83
2022-09-22T19:42:40.115Z,8.47
2022-09-22T19:45:08.433Z,6.83
2022-09-22T19:47:35.325Z,5.53
2022-09-22T19:50:02.105Z,4.70
2022-09-22T19:52:28.808Z,5.43
2022-09-22T19:54:55.491Z,13.87
2022-09-22T19:57:22.180Z,16.17
2022-09-22T19:59:48.867Z,16.80
2022-09-22T20:02:16.276Z,14.97
2022-09-22T20:04:43.164Z,13.63
2022-09-22T20:07:10.671Z,11.33
2022-09-22T20:09:37.363Z,11.03
2022-09-22T20:12:05.231Z,11.70
2022-09-22T20:14:32.044Z,11.40
2022-09-22T20:17:06.476Z,9.57
2022-09-22T20:19:39.977Z,9.83
2022-09-22T20:22:27.636Z,10.23
2022-09-22T20:25:01.358Z,11.17
2022-09-22T20:27:32.274Z,10.40
2022-09-22T20:30:00.037Z,9.57
2022-09-22T20:32:31.398Z,9.83
2022-09-22T20:34:58.337Z,9.50
2022-09-22T20:37:25.308Z,10.20
2022-09-22T20:39:52.287Z,8.97
2022-09-22T20:42:19.052Z,8.63
2022-09-22T20:44:46.765Z,7.87
2022-09-22T20:47:19.807Z,7.13
2022-09-22T20:49:51.383Z,6.80
2022-09-22T20:52:20.659Z,7.03
2022-09-22T20:54:48.410Z,6.90
2022-09-22T20:57:15.431Z,6.00
2022-09-22T20:59:45.596Z,5.93
2022-09-22T21:02:13.908Z,5.43
2022-09-22T21:04:41.155Z,4.97
2022-09-22T21:07:08.542Z,5.07
2022-09-22T21:09:53.979Z,6.20
2022-09-22T21:12:20.963Z,9.10
2022-09-22T21:14:48.687Z,10.93
2022-09-22T21:17:15.466Z,10.17
2022-09-22T21:19:43.159Z,8.30
2022-09-22T21:22:10.199Z,7.57
2022-09-22T21:24:36.960Z,6.47
2022-09-22T21:27:04.969Z,5.40
2022-09-22T21:29:32.193Z,5.40
2022-09-22T21:32:00.404Z,5.40
2022-09-22T21:34:27.656Z,4.90
2022-09-22T21:36:54.352Z,4.73
2022-09-22T21:39:21.383Z,4.60
2022-09-22T21:41:48.603Z,4.70
2022-09-22T21:44:15.510Z,3.90
2022-09-22T21:46:42.536Z,3.73
2022-09-22T21:49:10.361Z,3.70
2022-09-22T21:51:44.159Z,3.73
2022-09-22T21:54:17.564Z,3.50
2022-09-22T21:56:45.128Z,3.33
2022-09-22T21:59:13.354Z,3.30
2022-09-22T22:01:44.846Z,3.77
2022-09-22T22:04:15.088Z,4.10
2022-09-22T22:06:44.840Z,3.57
2022-09-22T22:09:20.569Z,3.37
2022-09-22T22:11:51.600Z,3.37
2022-09-22T22:14:20.350Z,3.33
2022-09-22T22:16:50.479Z,3.37
2022-09-22T22:19:20.849Z,3.23
2022-09-22T22:21:50.541Z,3.20
2022-09-22T22:24:30.280Z,3.10
2022-09-22T22:27:10.560Z,3.50
2022-09-22T22:29:40.955Z,3.40
2022-09-22T22:32:10.601Z,3.77
2022-09-22T22:34:37.765Z,3.10
2022-09-22T22:37:06.958Z,3.70
2022-09-22T22:39:33.770Z,3.23
2022-09-22T22:42:00.503Z,3.27
2022-09-22T22:44:27.220Z,3.33
2022-09-22T22:46:53.942Z,3.23
2022-09-22T22:49:20.669Z,3.33
2022-09-22T22:51:49.115Z,3.30
2022-09-22T22:54:16.070Z,2.83
2022-09-22T22:56:45.781Z,3.30
2022-09-22T22:59:14.800Z,3.10
2022-09-22T23:01:43.897Z,3.07
2022-09-22T23:04:11.790Z,2.83
2022-09-22T23:06:43.649Z,3.43
2022-09-22T23:09:14.396Z,3.20
2022-09-22T23:11:42.659Z,3.43
2022-09-22T23:14:12.938Z,3.13
2022-09-22T23:16:46.529Z,2.83
2022-09-22T23:19:18.693Z,2.70
2022-09-22T23:21:46.711Z,2.97
2022-09-22T23:24:18.721Z,3.20
2022-09-22T23:26:46.002Z,3.00
2022-09-22T23:29:12.959Z,3.17
2022-09-22T23:31:42.805Z,3.50
2022-09-22T23:34:09.594Z,3.30
2022-09-22T23:36:36.297Z,3.50
2022-09-22T23:39:04.611Z,3.40
2022-09-22T23:41:34.508Z,3.40
2022-09-22T23:44:03.020Z,3.20
2022-09-22T23:46:30.235Z,3.27
2022-09-22T23:48:57.671Z,3.20
2022-09-22T23:51:24.383Z,3.47
2022-09-22T23:53:52.288Z,3.10
2022-09-22T23:56:19.566Z,3.10
2022-09-22T23:58:46.538Z,3.63
